sensor_id;sensor_type;location;lat;lon;timestamp;pressure;altitude;pressure_sealevel;temperature;humidity
36932;BME280;22847;42.654;23.370;2022-11-25T00:01:18;94436.00;;;8.18;64.69
36932;BME280;22847;42.654;23.370;2022-11-25T00:03:45;94469.44;;;8.01;63.90
36932;BME280;22847;42.654;23.370;2022-11-25T00:06:16;94216.25;;;6.82;63.97
36932;BME280;22847;42.654;23.370;2022-11-25T00:08:43;94376.38;;;7.68;63.74
36932;BME280;22847;42.654;23.370;2022-11-25T00:11:09;94414.22;;;7.90;63.67
36932;BME280;22847;42.654;23.370;2022-11-25T00:13:36;94445.00;;;8.14;63.89
36932;BME280;22847;42.654;23.370;2022-11-25T00:16:03;94445.69;;;7.96;64.04
36932;BME280;22847;42.654;23.370;2022-11-25T00:18:28;94434.31;;;7.97;63.12
36932;BME280;22847;42.654;23.370;2022-11-25T00:20:54;94395.91;;;7.82;63.04
36932;BME280;22847;42.654;23.370;2022-11-25T00:23:19;94293.97;;;7.22;63.50
36932;BME280;22847;42.654;23.370;2022-11-25T00:25:45;94410.41;;;7.94;64.89
36932;BME280;22847;42.654;23.370;2022-11-25T00:28:10;94261.00;;;6.94;64.51
36932;BME280;22847;42.654;23.370;2022-11-25T00:30:36;94442.81;;;8.09;63.68
36932;BME280;22847;42.654;23.370;2022-11-25T00:33:01;94464.28;;;8.21;63.58
36932;BME280;22847;42.654;23.370;2022-11-25T00:35:26;94452.72;;;8.44;62.63
36932;BME280;22847;42.654;23.370;2022-11-25T00:37:52;94213.16;;;6.88;64.10
36932;BME280;22847;42.654;23.370;2022-11-25T00:40:17;94439.69;;;8.25;62.72
36932;BME280;22847;42.654;23.370;2022-11-25T00:42:42;94327.16;;;7.38;64.04
36932;BME280;22847;42.654;23.370;2022-11-25T00:45:26;94401.22;;;7.71;64.54
36932;BME280;22847;42.654;23.370;2022-11-25T00:47:52;94445.00;;;8.04;64.80
36932;BME280;22847;42.654;23.370;2022-11-25T00:50:17;94466.97;;;7.90;64.83
36932;BME280;22847;42.654;23.370;2022-11-25T00:52:43;94449.50;;;8.02;66.33
36932;BME280;22847;42.654;23.370;2022-11-25T00:55:08;94357.88;;;7.33;64.77
36932;BME280;22847;42.654;23.370;2022-11-25T00:57:34;94408.19;;;7.80;64.69
36932;BME280;22847;42.654;23.370;2022-11-25T00:59:59;94398.47;;;7.62;65.01
36932;BME280;22847;42.654;23.370;2022-11-25T01:02:24;94234.56;;;6.50;65.31
36932;BME280;22847;42.654;23.370;2022-11-25T01:04:50;94449.91;;;7.88;65.03
36932;BME280;22847;42.654;23.370;2022-11-25T01:07:16;94236.09;;;6.53;65.72
36932;BME280;22847;42.654;23.370;2022-11-25T01:09:41;94275.84;;;6.82;65.42
36932;BME280;22847;42.654;23.370;2022-11-25T01:12:07;94430.75;;;7.89;64.69
36932;BME280;22847;42.654;23.370;2022-11-25T01:14:33;94280.56;;;6.98;65.32
36932;BME280;22847;42.654;23.370;2022-11-25T01:16:58;94259.09;;;6.86;65.48
36932;BME280;22847;42.654;23.370;2022-11-25T01:19:24;94450.69;;;7.88;65.30
36932;BME280;22847;42.654;23.370;2022-11-25T01:21:50;94457.97;;;8.04;64.69
36932;BME280;22847;42.654;23.370;2022-11-25T01:24:16;94454.41;;;7.95;65.53
36932;BME280;22847;42.654;23.370;2022-11-25T01:26:43;94421.75;;;7.83;65.49
36932;BME280;22847;42.654;23.370;2022-11-25T01:29:14;94401.09;;;7.72;65.40
36932;BME280;22847;42.654;23.370;2022-11-25T01:31:40;94448.97;;;8.18;65.14
36932;BME280;22847;42.654;23.370;2022-11-25T01:34:13;94459.06;;;8.11;65.43
36932;BME280;22847;42.654;23.370;2022-11-25T01:36:39;94448.94;;;7.98;65.21
36932;BME280;22847;42.654;23.370;2022-11-25T01:39:05;94432.13;;;7.93;65.12
36932;BME280;22847;42.654;23.370;2022-11-25T01:41:32;94398.09;;;7.77;63.82
36932;BME280;22847;42.654;23.370;2022-11-25T01:44:08;94335.13;;;7.75;64.65
36932;BME280;22847;42.654;23.370;2022-11-25T01:46:54;94436.94;;;8.17;64.06
36932;BME280;22847;42.654;23.370;2022-11-25T01:52:25;94430.91;;;8.16;62.97
36932;BME280;22847;42.654;23.370;2022-11-25T01:57:26;94421.94;;;8.30;62.33
36932;BME280;22847;42.654;23.370;2022-11-25T01:59:55;94403.19;;;8.26;62.35
36932;BME280;22847;42.654;23.370;2022-11-25T02:02:21;94359.44;;;7.93;61.56
36932;BME280;22847;42.654;23.370;2022-11-25T02:04:47;94399.50;;;8.00;63.01
36932;BME280;22847;42.654;23.370;2022-11-25T02:07:25;94423.72;;;8.29;63.42
36932;BME280;22847;42.654;23.370;2022-11-25T02:09:52;94204.44;;;7.08;62.01
36932;BME280;22847;42.654;23.370;2022-11-25T02:12:20;94198.97;;;7.11;61.61
36932;BME280;22847;42.654;23.370;2022-11-25T02:14:48;94360.41;;;8.21;60.80
36932;BME280;22847;42.654;23.370;2022-11-25T02:17:15;94430.69;;;8.48;62.22
36932;BME280;22847;42.654;23.370;2022-11-25T02:19:59;94451.06;;;8.52;61.48
36932;BME280;22847;42.654;23.370;2022-11-25T02:25:35;94257.81;;;7.49;60.89
36932;BME280;22847;42.654;23.370;2022-11-25T02:28:04;94443.91;;;8.16;60.54
36932;BME280;22847;42.654;23.370;2022-11-25T02:30:31;94249.19;;;7.10;61.03
36932;BME280;22847;42.654;23.370;2022-11-25T02:32:57;94455.00;;;8.28;61.01
36932;BME280;22847;42.654;23.370;2022-11-25T02:37:57;94393.50;;;8.19;61.07
36932;BME280;22847;42.654;23.370;2022-11-25T02:40:25;94451.59;;;8.66;59.06
36932;BME280;22847;42.654;23.370;2022-11-25T02:42:52;94411.09;;;8.25;59.33
36932;BME280;22847;42.654;23.370;2022-11-25T02:45:25;94445.84;;;8.33;59.78
36932;BME280;22847;42.654;23.370;2022-11-25T02:47:54;94223.34;;;6.90;59.88
36932;BME280;22847;42.654;23.370;2022-11-25T02:50:19;94223.34;;;6.70;60.20
36932;BME280;22847;42.654;23.370;2022-11-25T02:52:45;94181.47;;;6.65;61.97
36932;BME280;22847;42.654;23.370;2022-11-25T02:55:10;94371.34;;;7.86;59.59
36932;BME280;22847;42.654;23.370;2022-11-25T02:57:35;94236.72;;;6.85;59.96
36932;BME280;22847;42.654;23.370;2022-11-25T03:00:01;94459.63;;;8.24;59.78
36932;BME280;22847;42.654;23.370;2022-11-25T03:02:26;94486.59;;;8.23;61.27
36932;BME280;22847;42.654;23.370;2022-11-25T03:04:52;94456.78;;;8.18;60.45
36932;BME280;22847;42.654;23.370;2022-11-25T03:07:17;94355.72;;;7.47;61.68
36932;BME280;22847;42.654;23.370;2022-11-25T03:09:43;94461.97;;;8.18;61.27
36932;BME280;22847;42.654;23.370;2022-11-25T03:12:08;94249.66;;;6.85;62.16
36932;BME280;22847;42.654;23.370;2022-11-25T03:14:46;94475.69;;;8.48;60.87
36932;BME280;22847;42.654;23.370;2022-11-25T03:17:12;94435.69;;;8.11;61.18
36932;BME280;22847;42.654;23.370;2022-11-25T03:19:37;94378.00;;;7.59;61.27
36932;BME280;22847;42.654;23.370;2022-11-25T03:22:03;94227.59;;;6.91;61.08
36932;BME280;22847;42.654;23.370;2022-11-25T03:24:29;94391.81;;;7.79;61.17
36932;BME280;22847;42.654;23.370;2022-11-25T03:26:54;94451.69;;;8.06;62.02
36932;BME280;22847;42.654;23.370;2022-11-25T03:29:19;94477.13;;;8.22;64.14
36932;BME280;22847;42.654;23.370;2022-11-25T03:31:45;94269.72;;;6.83;62.28
36932;BME280;22847;42.654;23.370;2022-11-25T03:34:11;94469.69;;;7.89;62.88
36932;BME280;22847;42.654;23.370;2022-11-25T03:36:36;94499.22;;;7.97;63.03
36932;BME280;22847;42.654;23.370;2022-11-25T03:39:02;94496.41;;;8.10;63.16
36932;BME280;22847;42.654;23.370;2022-11-25T03:41:28;94490.53;;;8.18;63.59
36932;BME280;22847;42.654;23.370;2022-11-25T03:43:53;94495.13;;;7.95;64.25
36932;BME280;22847;42.654;23.370;2022-11-25T03:46:19;94530.38;;;7.88;64.53
36932;BME280;22847;42.654;23.370;2022-11-25T03:48:44;94212.13;;;6.00;65.42
36932;BME280;22847;42.654;23.370;2022-11-25T03:51:09;94523.06;;;7.72;65.62
36932;BME280;22847;42.654;23.370;2022-11-25T03:53:35;94510.91;;;7.73;65.81
36932;BME280;22847;42.654;23.370;2022-11-25T03:56:00;94509.41;;;7.80;65.74
36932;BME280;22847;42.654;23.370;2022-11-25T03:58:26;94514.84;;;7.67;66.27
36932;BME280;22847;42.654;23.370;2022-11-25T04:00:51;94502.53;;;7.59;66.40
36932;BME280;22847;42.654;23.370;2022-11-25T04:03:17;94521.94;;;7.65;66.27
36932;BME280;22847;42.654;23.370;2022-11-25T04:05:42;94523.03;;;7.62;66.78
36932;BME280;22847;42.654;23.370;2022-11-25T04:08:08;94555.38;;;7.58;66.82
36932;BME280;22847;42.654;23.370;2022-11-25T04:10:33;94450.69;;;7.08;67.57
36932;BME280;22847;42.654;23.370;2022-11-25T04:12:58;94530.75;;;7.53;67.29
36932;BME280;22847;42.654;23.370;2022-11-25T04:15:24;94286.28;;;6.10;67.28
36932;BME280;22847;42.654;23.370;2022-11-25T04:17:49;94493.53;;;7.33;66.85
36932;BME280;22847;42.654;23.370;2022-11-25T04:20:15;94549.53;;;7.66;66.62
36932;BME280;22847;42.654;23.370;2022-11-25T04:22:40;94515.72;;;7.47;66.27
36932;BME280;22847;42.654;23.370;2022-11-25T04:25:07;94495.16;;;7.34;66.48
36932;BME280;22847;42.654;23.370;2022-11-25T04:27:32;94281.69;;;5.93;66.77
36932;BME280;22847;42.654;23.370;2022-11-25T04:29:58;94536.69;;;7.65;66.11
36932;BME280;22847;42.654;23.370;2022-11-25T04:32:23;94532.38;;;7.24;66.45
36932;BME280;22847;42.654;23.370;2022-11-25T04:34:48;94314.69;;;6.01;66.52
36932;BME280;22847;42.654;23.370;2022-11-25T04:37:14;94553.66;;;7.48;66.78
36932;BME280;22847;42.654;23.370;2022-11-25T04:39:39;94555.09;;;7.61;66.29
36932;BME280;22847;42.654;23.370;2022-11-25T04:42:05;94523.47;;;7.37;66.31
36932;BME280;22847;42.654;23.370;2022-11-25T04:44:49;94607.06;;;7.50;66.68
36932;BME280;22847;42.654;23.370;2022-11-25T04:47:14;94560.13;;;7.53;66.55
36932;BME280;22847;42.654;23.370;2022-11-25T04:49:40;94553.31;;;7.32;66.94
36932;BME280;22847;42.654;23.370;2022-11-25T04:52:05;94392.25;;;6.44;66.64
36932;BME280;22847;42.654;23.370;2022-11-25T04:54:31;94478.22;;;7.00;66.29
36932;BME280;22847;42.654;23.370;2022-11-25T04:56:56;94536.09;;;7.51;65.97
36932;BME280;22847;42.654;23.370;2022-11-25T04:59:21;94518.66;;;7.33;65.91
36932;BME280;22847;42.654;23.370;2022-11-25T05:02:17;94573.41;;;7.60;66.56
36932;BME280;22847;42.654;23.370;2022-11-25T05:04:44;94572.41;;;7.82;66.81
36932;BME280;22847;42.654;23.370;2022-11-25T05:07:10;94584.69;;;7.80;65.60
36932;BME280;22847;42.654;23.370;2022-11-25T05:09:36;94597.00;;;7.57;66.28
36932;BME280;22847;42.654;23.370;2022-11-25T05:12:03;94566.78;;;7.46;66.19
36932;BME280;22847;42.654;23.370;2022-11-25T05:14:28;94605.53;;;7.69;65.89
36932;BME280;22847;42.654;23.370;2022-11-25T05:16:54;94546.25;;;7.34;65.70
36932;BME280;22847;42.654;23.370;2022-11-25T05:19:19;94263.91;;;5.47;65.44
36932;BME280;22847;42.654;23.370;2022-11-25T05:21:45;94449.03;;;6.56;65.80
36932;BME280;22847;42.654;23.370;2022-11-25T05:24:10;94553.81;;;7.26;65.51
36932;BME280;22847;42.654;23.370;2022-11-25T05:26:36;94564.00;;;7.38;65.66
36932;BME280;22847;42.654;23.370;2022-11-25T05:29:01;94395.63;;;6.23;65.77
36932;BME280;22847;42.654;23.370;2022-11-25T05:31:26;94396.47;;;6.24;64.81
36932;BME280;22847;42.654;23.370;2022-11-25T05:33:52;94625.47;;;7.68;64.45
36932;BME280;22847;42.654;23.370;2022-11-25T05:36:17;94630.16;;;7.53;64.46
36932;BME280;22847;42.654;23.370;2022-11-25T05:38:43;94613.03;;;7.41;64.53
36932;BME280;22847;42.654;23.370;2022-11-25T05:41:09;94633.69;;;7.52;64.49
36932;BME280;22847;42.654;23.370;2022-11-25T05:43:35;94613.84;;;7.42;64.11
36932;BME280;22847;42.654;23.370;2022-11-25T05:46:07;94591.50;;;7.09;64.65
36932;BME280;22847;42.654;23.370;2022-11-25T05:48:32;94467.72;;;6.60;64.47
36932;BME280;22847;42.654;23.370;2022-11-25T05:50:59;94641.81;;;7.59;63.71
36932;BME280;22847;42.654;23.370;2022-11-25T05:53:25;94614.53;;;7.23;63.76
36932;BME280;22847;42.654;23.370;2022-11-25T05:55:59;94626.25;;;7.38;63.97
36932;BME280;22847;42.654;23.370;2022-11-25T05:58:26;94640.84;;;7.39;63.82
36932;BME280;22847;42.654;23.370;2022-11-25T06:00:52;94653.44;;;7.44;63.49
36932;BME280;22847;42.654;23.370;2022-11-25T06:03:17;94602.69;;;7.30;63.27
36932;BME280;22847;42.654;23.370;2022-11-25T06:05:43;94690.81;;;7.73;63.01
36932;BME280;22847;42.654;23.370;2022-11-25T06:08:09;94621.56;;;7.53;62.44
36932;BME280;22847;42.654;23.370;2022-11-25T06:10:38;94677.03;;;8.03;61.88
36932;BME280;22847;42.654;23.370;2022-11-25T06:13:05;94686.47;;;8.04;61.52
36932;BME280;22847;42.654;23.370;2022-11-25T06:15:30;94420.78;;;6.53;61.12
36932;BME280;22847;42.654;23.370;2022-11-25T06:17:56;94678.97;;;8.11;61.32
36932;BME280;22847;42.654;23.370;2022-11-25T06:20:21;94645.16;;;7.71;61.05
36932;BME280;22847;42.654;23.370;2022-11-25T06:22:46;94678.41;;;8.07;61.42
36932;BME280;22847;42.654;23.370;2022-11-25T06:25:12;94519.66;;;7.21;60.55
36932;BME280;22847;42.654;23.370;2022-11-25T06:27:37;94667.06;;;8.08;59.93
36932;BME280;22847;42.654;23.370;2022-11-25T06:30:03;94565.78;;;7.38;60.51
36932;BME280;22847;42.654;23.370;2022-11-25T06:32:29;94686.75;;;8.11;60.78
36932;BME280;22847;42.654;23.370;2022-11-25T06:34:54;94698.34;;;8.06;60.48
36932;BME280;22847;42.654;23.370;2022-11-25T06:37:20;94684.78;;;8.24;62.45
36932;BME280;22847;42.654;23.370;2022-11-25T06:39:45;94685.13;;;8.10;60.64
36932;BME280;22847;42.654;23.370;2022-11-25T06:42:11;94742.06;;;8.22;60.19
36932;BME280;22847;42.654;23.370;2022-11-25T06:44:37;94710.78;;;8.03;60.54
36932;BME280;22847;42.654;23.370;2022-11-25T06:47:02;94676.44;;;7.69;60.54
36932;BME280;22847;42.654;23.370;2022-11-25T06:49:27;94693.69;;;7.80;60.76
36932;BME280;22847;42.654;23.370;2022-11-25T06:51:53;94764.03;;;7.97;61.15
36932;BME280;22847;42.654;23.370;2022-11-25T06:54:19;94710.16;;;7.90;61.00
36932;BME280;22847;42.654;23.370;2022-11-25T06:56:44;94612.41;;;7.28;61.22
36932;BME280;22847;42.654;23.370;2022-11-25T06:59:16;94741.28;;;8.11;61.93
36932;BME280;22847;42.654;23.370;2022-11-25T07:01:41;94773.16;;;8.13;62.01
36932;BME280;22847;42.654;23.370;2022-11-25T07:04:07;94515.81;;;6.73;62.11
36932;BME280;22847;42.654;23.370;2022-11-25T07:06:32;94738.78;;;7.99;61.87
36932;BME280;22847;42.654;23.370;2022-11-25T07:08:58;94729.56;;;8.16;62.97
36932;BME280;22847;42.654;23.370;2022-11-25T07:11:30;94745.31;;;8.35;61.70
36932;BME280;22847;42.654;23.370;2022-11-25T07:14:18;94635.22;;;7.76;60.76
36932;BME280;22847;42.654;23.370;2022-11-25T07:16:43;94524.72;;;6.81;61.00
36932;BME280;22847;42.654;23.370;2022-11-25T07:19:15;94516.16;;;7.01;61.90
36932;BME280;22847;42.654;23.370;2022-11-25T07:21:41;94768.03;;;8.43;60.87
36932;BME280;22847;42.654;23.370;2022-11-25T07:24:09;94640.28;;;7.77;59.56
36932;BME280;22847;42.654;23.370;2022-11-25T07:26:36;94738.63;;;8.42;60.03
36932;BME280;22847;42.654;23.370;2022-11-25T07:29:05;94718.28;;;8.27;62.31
36932;BME280;22847;42.654;23.370;2022-11-25T07:31:40;94722.03;;;8.34;61.91
36932;BME280;22847;42.654;23.370;2022-11-25T07:34:10;94739.97;;;8.67;60.74
36932;BME280;22847;42.654;23.370;2022-11-25T07:36:36;94762.97;;;8.72;60.90
36932;BME280;22847;42.654;23.370;2022-11-25T07:39:04;94773.09;;;8.75;59.75
36932;BME280;22847;42.654;23.370;2022-11-25T07:41:30;94745.06;;;8.78;60.10
36932;BME280;22847;42.654;23.370;2022-11-25T07:44:04;94753.13;;;9.25;61.08
36932;BME280;22847;42.654;23.370;2022-11-25T07:46:35;94579.94;;;8.93;56.38
36932;BME280;22847;42.654;23.370;2022-11-25T07:49:03;94646.75;;;9.41;54.61
36932;BME280;22847;42.654;23.370;2022-11-25T07:51:40;94779.34;;;9.81;54.85
36932;BME280;22847;42.654;23.370;2022-11-25T07:54:08;94793.16;;;9.91;55.41
36932;BME280;22847;42.654;23.370;2022-11-25T07:56:36;94564.44;;;8.54;55.25
36932;BME280;22847;42.654;23.370;2022-11-25T07:59:02;94518.19;;;8.38;55.39
36932;BME280;22847;42.654;23.370;2022-11-25T08:01:28;94768.78;;;10.31;55.08
36932;BME280;22847;42.654;23.370;2022-11-25T08:03:54;94746.50;;;10.46;52.76
36932;BME280;22847;42.654;23.370;2022-11-25T08:06:27;94749.75;;;10.57;52.64
36932;BME280;22847;42.654;23.370;2022-11-25T08:08:54;94777.00;;;11.09;51.35
36932;BME280;22847;42.654;23.370;2022-11-25T08:11:23;94792.66;;;11.37;51.30
36932;BME280;22847;42.654;23.370;2022-11-25T08:13:49;94696.97;;;11.00;49.22
36932;BME280;22847;42.654;23.370;2022-11-25T08:16:17;94823.25;;;11.62;49.51
36932;BME280;22847;42.654;23.370;2022-11-25T08:18:43;94763.19;;;11.62;50.27
36932;BME280;22847;42.654;23.370;2022-11-25T08:21:10;94342.94;;;9.43;48.94
36932;BME280;22847;42.654;23.370;2022-11-25T08:23:38;94752.34;;;12.02;48.76
36932;BME280;22847;42.654;23.370;2022-11-25T08:26:06;94802.44;;;12.15;51.27
36932;BME280;22847;42.654;23.370;2022-11-25T08:28:33;94821.72;;;11.96;48.63
36932;BME280;22847;42.654;23.370;2022-11-25T08:31:14;94784.50;;;12.02;48.64
36932;BME280;22847;42.654;23.370;2022-11-25T08:33:40;94606.84;;;10.88;49.47
36932;BME280;22847;42.654;23.370;2022-11-25T08:36:06;94711.84;;;11.53;48.79
36932;BME280;22847;42.654;23.370;2022-11-25T08:38:32;94823.72;;;12.20;47.67
36932;BME280;22847;42.654;23.370;2022-11-25T08:40:58;94593.31;;;11.02;48.45
36932;BME280;22847;42.654;23.370;2022-11-25T08:43:24;94744.22;;;11.87;48.24
36932;BME280;22847;42.654;23.370;2022-11-25T08:45:49;94788.75;;;12.03;48.43
36932;BME280;22847;42.654;23.370;2022-11-25T08:48:17;94822.53;;;12.15;49.95
36932;BME280;22847;42.654;23.370;2022-11-25T08:50:49;94786.97;;;12.04;48.48
36932;BME280;22847;42.654;23.370;2022-11-25T08:53:15;94800.19;;;12.02;49.07
36932;BME280;22847;42.654;23.370;2022-11-25T08:55:41;94799.66;;;12.17;49.97
36932;BME280;22847;42.654;23.370;2022-11-25T08:58:07;94781.97;;;12.28;49.27
36932;BME280;22847;42.654;23.370;2022-11-25T09:00:43;94740.25;;;12.01;47.37
36932;BME280;22847;42.654;23.370;2022-11-25T09:03:09;94793.19;;;12.46;49.72
36932;BME280;22847;42.654;23.370;2022-11-25T09:05:38;94790.50;;;12.56;51.67
36932;BME280;22847;42.654;23.370;2022-11-25T09:08:05;94773.16;;;12.55;49.12
36932;BME280;22847;42.654;23.370;2022-11-25T09:10:32;94788.28;;;12.69;47.35
36932;BME280;22847;42.654;23.370;2022-11-25T09:12:58;94773.84;;;12.39;47.30
36932;BME280;22847;42.654;23.370;2022-11-25T09:15:24;94748.50;;;12.14;48.62
36932;BME280;22847;42.654;23.370;2022-11-25T09:18:00;94798.56;;;12.45;47.76
36932;BME280;22847;42.654;23.370;2022-11-25T09:20:27;94749.34;;;12.15;47.59
36932;BME280;22847;42.654;23.370;2022-11-25T09:22:54;94795.88;;;12.55;48.82
36932;BME280;22847;42.654;23.370;2022-11-25T09:25:21;94820.88;;;12.57;49.37
36932;BME280;22847;42.654;23.370;2022-11-25T09:27:46;94769.59;;;12.38;47.35
36932;BME280;22847;42.654;23.370;2022-11-25T09:30:12;94630.53;;;11.66;47.50
36932;BME280;22847;42.654;23.370;2022-11-25T09:32:38;94792.22;;;12.73;48.75
36932;BME280;22847;42.654;23.370;2022-11-25T09:35:03;94574.38;;;11.61;47.95
36932;BME280;22847;42.654;23.370;2022-11-25T09:37:29;94731.88;;;12.41;47.65
36932;BME280;22847;42.654;23.370;2022-11-25T09:39:54;94661.72;;;11.85;47.61
36932;BME280;22847;42.654;23.370;2022-11-25T09:45:25;94822.22;;;12.61;48.82
36932;BME280;22847;42.654;23.370;2022-11-25T09:53:42;94822.63;;;12.74;49.58
36932;BME280;22847;42.654;23.370;2022-11-25T09:59:38;94793.56;;;12.77;46.59
36932;BME280;22847;42.654;23.370;2022-11-25T10:05:02;94775.25;;;12.51;51.00
36932;BME280;22847;42.654;23.370;2022-11-25T10:07:37;94589.59;;;11.48;48.38
36932;BME280;22847;42.654;23.370;2022-11-25T10:10:09;94765.50;;;12.36;47.42
36932;BME280;22847;42.654;23.370;2022-11-25T10:12:42;94781.41;;;12.42;47.58
36932;BME280;22847;42.654;23.370;2022-11-25T10:15:24;94597.69;;;11.02;47.41
36932;BME280;22847;42.654;23.370;2022-11-25T10:17:54;94793.53;;;12.26;47.08
36932;BME280;22847;42.654;23.370;2022-11-25T10:20:39;94662.63;;;11.40;47.05
36932;BME280;22847;42.654;23.370;2022-11-25T10:23:17;94608.34;;;11.08;48.28
36932;BME280;22847;42.654;23.370;2022-11-25T10:25:47;94791.25;;;12.05;47.78
36932;BME280;22847;42.654;23.370;2022-11-25T10:28:21;94828.19;;;11.92;48.79
36932;BME280;22847;42.654;23.370;2022-11-25T10:33:18;94792.22;;;11.59;48.63
36932;BME280;22847;42.654;23.370;2022-11-25T10:39:06;94556.69;;;9.67;51.30
36932;BME280;22847;42.654;23.370;2022-11-25T10:41:42;94619.66;;;10.27;50.40
36932;BME280;22847;42.654;23.370;2022-11-25T10:44:24;94754.25;;;11.47;49.64
36932;BME280;22847;42.654;23.370;2022-11-25T10:55:18;94777.78;;;12.00;48.22
36932;BME280;22847;42.654;23.370;2022-11-25T10:57:44;94639.97;;;10.60;47.03
36932;BME280;22847;42.654;23.370;2022-11-25T11:00:34;94811.03;;;11.08;48.67
36932;BME280;22847;42.654;23.370;2022-11-25T11:03:22;94711.94;;;10.44;49.08
36932;BME280;22847;42.654;23.370;2022-11-25T11:05:50;94731.09;;;10.62;49.60
36932;BME280;22847;42.654;23.370;2022-11-25T11:08:36;94777.03;;;11.00;50.30
36932;BME280;22847;42.654;23.370;2022-11-25T11:11:21;94789.25;;;11.27;49.25
36932;BME280;22847;42.654;23.370;2022-11-25T11:13:47;94641.50;;;10.26;48.88
36932;BME280;22847;42.654;23.370;2022-11-25T11:16:30;94782.28;;;10.90;48.91
36932;BME280;22847;42.654;23.370;2022-11-25T11:18:58;94629.72;;;10.12;49.87
36932;BME280;22847;42.654;23.370;2022-11-25T11:21:36;94610.03;;;9.91;49.81
36932;BME280;22847;42.654;23.370;2022-11-25T11:27:10;94796.34;;;10.80;51.05
36932;BME280;22847;42.654;23.370;2022-11-25T11:29:39;94818.06;;;10.70;51.36
36932;BME280;22847;42.654;23.370;2022-11-25T11:32:06;94823.31;;;10.61;52.22
36932;BME280;22847;42.654;23.370;2022-11-25T11:37:53;94817.16;;;10.43;52.65
36932;BME280;22847;42.654;23.370;2022-11-25T11:40:41;94796.44;;;10.41;53.75
36932;BME280;22847;42.654;23.370;2022-11-25T11:43:18;94836.38;;;10.98;52.17
36932;BME280;22847;42.654;23.370;2022-11-25T11:54:34;94815.88;;;10.66;53.47
36932;BME280;22847;42.654;23.370;2022-11-25T11:57:06;94843.63;;;10.67;52.72
36932;BME280;22847;42.654;23.370;2022-11-25T11:59:53;94841.66;;;10.79;52.34
36932;BME280;22847;42.654;23.370;2022-11-25T12:07:56;94830.72;;;11.02;52.46
36932;BME280;22847;42.654;23.370;2022-11-25T12:13:16;94787.28;;;10.84;51.31
36932;BME280;22847;42.654;23.370;2022-11-25T12:15:52;94832.78;;;10.99;53.07
36932;BME280;22847;42.654;23.370;2022-11-25T12:18:32;94798.28;;;10.68;52.13
36932;BME280;22847;42.654;23.370;2022-11-25T12:37:51;94839.44;;;10.84;53.24
36932;BME280;22847;42.654;23.370;2022-11-25T12:42:47;94845.19;;;10.87;52.63
36932;BME280;22847;42.654;23.370;2022-11-25T12:47:45;94828.75;;;10.67;53.36
36932;BME280;22847;42.654;23.370;2022-11-25T12:50:21;94826.56;;;10.72;53.81
36932;BME280;22847;42.654;23.370;2022-11-25T12:53:15;94655.75;;;9.56;53.41
36932;BME280;22847;42.654;23.370;2022-11-25T12:55:44;94747.94;;;10.31;52.64
36932;BME280;22847;42.654;23.370;2022-11-25T12:58:40;94594.84;;;9.20;53.31
36932;BME280;22847;42.654;23.370;2022-11-25T13:06:36;94821.72;;;10.87;52.16
36932;BME280;22847;42.654;23.370;2022-11-25T13:17:36;94803.66;;;10.66;52.69
36932;BME280;22847;42.654;23.370;2022-11-25T13:25:45;94571.84;;;9.06;52.80
36932;BME280;22847;42.654;23.370;2022-11-25T13:28:34;94814.84;;;10.40;52.52
36932;BME280;22847;42.654;23.370;2022-11-25T13:36:16;94820.44;;;10.45;53.04
36932;BME280;22847;42.654;23.370;2022-11-25T13:41:23;94819.94;;;10.22;53.14
36932;BME280;22847;42.654;23.370;2022-11-25T13:46:51;94828.16;;;10.08;53.37
36932;BME280;22847;42.654;23.370;2022-11-25T13:52:27;94819.38;;;9.80;54.09
36932;BME280;22847;42.654;23.370;2022-11-25T13:54:52;94826.06;;;9.73;54.24
36932;BME280;22847;42.654;23.370;2022-11-25T13:57:34;94669.47;;;8.61;54.24
36932;BME280;22847;42.654;23.370;2022-11-25T14:02:53;94452.22;;;7.11;55.10
36932;BME280;22847;42.654;23.370;2022-11-25T14:08:14;94638.84;;;8.24;55.74
36932;BME280;22847;42.654;23.370;2022-11-25T14:18:54;94774.59;;;8.68;55.73
36932;BME280;22847;42.654;23.370;2022-11-25T14:24:45;94884.00;;;9.16;56.97
36932;BME280;22847;42.654;23.370;2022-11-25T14:27:14;94655.34;;;7.83;57.28
36932;BME280;22847;42.654;23.370;2022-11-25T14:29:41;94903.03;;;9.16;58.91
36932;BME280;22847;42.654;23.370;2022-11-25T14:37:40;94645.69;;;7.65;58.27
36932;BME280;22847;42.654;23.370;2022-11-25T14:42:39;94695.13;;;7.93;58.84
36932;BME280;22847;42.654;23.370;2022-11-25T14:45:31;94862.09;;;8.88;58.63
36932;BME280;22847;42.654;23.370;2022-11-25T14:51:03;94840.72;;;8.54;59.21
36932;BME280;22847;42.654;23.370;2022-11-25T14:53:37;94779.69;;;8.07;59.13
36932;BME280;22847;42.654;23.370;2022-11-25T14:56:04;94861.09;;;9.00;58.88
36932;BME280;22847;42.654;23.370;2022-11-25T14:58:29;94830.47;;;8.83;58.89
36932;BME280;22847;42.654;23.370;2022-11-25T15:03:23;94635.47;;;7.73;57.42
36932;BME280;22847;42.654;23.370;2022-11-25T15:05:55;94856.94;;;8.98;58.01
36932;BME280;22847;42.654;23.370;2022-11-25T15:08:22;94850.78;;;8.99;57.68
36932;BME280;22847;42.654;23.370;2022-11-25T15:10:58;94642.56;;;7.71;57.42
36932;BME280;22847;42.654;23.370;2022-11-25T15:13:37;94885.66;;;8.96;57.88
36932;BME280;22847;42.654;23.370;2022-11-25T15:18:29;94865.63;;;8.77;57.80
36932;BME280;22847;42.654;23.370;2022-11-25T15:20:57;94788.63;;;8.35;58.34
36932;BME280;22847;42.654;23.370;2022-11-25T15:23:27;94793.38;;;8.50;57.25
36932;BME280;22847;42.654;23.370;2022-11-25T15:25:53;94860.41;;;9.08;56.82
36932;BME280;22847;42.654;23.370;2022-11-25T15:28:19;94854.88;;;8.91;56.70
36932;BME280;22847;42.654;23.370;2022-11-25T15:30:55;94876.75;;;8.89;57.11
36932;BME280;22847;42.654;23.370;2022-11-25T15:33:23;94838.19;;;8.64;58.06
36932;BME280;22847;42.654;23.370;2022-11-25T15:35:50;94837.34;;;8.42;57.76
36932;BME280;22847;42.654;23.370;2022-11-25T15:38:17;94451.81;;;6.12;58.36